createdAt,value
2019-02-28T00:02:43.427Z,0
2019-02-28T00:05:49.582Z,0
2019-02-28T00:08:56.846Z,0
2019-02-28T00:12:02.727Z,0
2019-02-28T00:15:08.592Z,0
2019-02-28T00:18:19.123Z,0
2019-02-28T00:21:25.130Z,0
2019-02-28T00:24:33.649Z,0
2019-02-28T00:27:39.614Z,0
2019-02-28T00:30:45.571Z,0
2019-02-28T00:33:51.628Z,0
2019-02-28T00:36:57.588Z,0
2019-02-28T00:40:06.564Z,0
2019-02-28T00:43:12.990Z,0
2019-02-28T00:46:18.951Z,0
2019-02-28T00:49:27.572Z,0
2019-02-28T00:52:38.516Z,0
2019-02-28T00:55:48.287Z,0
2019-02-28T00:58:54.154Z,0
2019-02-28T01:02:00.221Z,0
2019-02-28T01:05:08.747Z,0
2019-02-28T01:08:14.706Z,0
2019-02-28T01:11:25.705Z,0
2019-02-28T01:14:37.875Z,0
2019-02-28T01:17:44.009Z,0
2019-02-28T01:20:53.244Z,0
2019-02-28T01:24:03.016Z,0
2019-02-28T01:27:08.998Z,0
2019-02-28T01:30:14.949Z,0
2019-02-28T01:33:27.450Z,0
2019-02-28T01:36:33.537Z,0
2019-02-28T01:39:39.432Z,0
2019-02-28T01:42:45.740Z,0
2019-02-28T01:45:51.622Z,0
2019-02-28T01:48:58.400Z,0
2019-02-28T01:52:09.537Z,0
2019-02-28T01:55:16.147Z,0
2019-02-28T01:58:22.247Z,0
2019-02-28T02:01:33.607Z,0
2019-02-28T02:04:39.671Z,0
2019-02-28T02:07:51.048Z,0
2019-02-28T02:10:58.961Z,0
2019-02-28T02:14:07.403Z,0
2019-02-28T02:17:17.325Z,0
2019-02-28T02:20:28.815Z,0
2019-02-28T02:23:34.795Z,0
2019-02-28T02:26:46.587Z,0
2019-02-28T02:29:52.829Z,0
2019-02-28T02:32:58.849Z,0
2019-02-28T02:36:05.013Z,0
2019-02-28T02:39:19.096Z,0
2019-02-28T02:42:24.987Z,0
2019-02-28T02:45:31.205Z,0
2019-02-28T02:48:45.266Z,0
2019-02-28T02:51:53.686Z,0
2019-02-28T02:54:59.849Z,0
2019-02-28T02:58:05.820Z,0
2019-02-28T03:01:11.898Z,0
2019-02-28T03:04:25.855Z,0
2019-02-28T03:07:31.798Z,0
2019-02-28T03:10:37.887Z,0
2019-02-28T03:13:46.999Z,0
2019-02-28T03:16:53.104Z,0
2019-02-28T03:19:59.216Z,0
2019-02-28T03:23:06.428Z,0
2019-02-28T03:26:12.486Z,0
2019-02-28T03:29:18.654Z,0
2019-02-28T03:32:24.922Z,0
2019-02-28T03:35:47.411Z,0
2019-02-28T03:38:53.500Z,0
2019-02-28T03:41:59.490Z,0
2019-02-28T03:45:05.655Z,0
2019-02-28T03:48:11.793Z,0
2019-02-28T03:51:17.843Z,0
2019-02-28T03:54:23.819Z,0
2019-02-28T03:57:35.300Z,177.1
2019-02-28T04:00:41.479Z,230.4
2019-02-28T04:03:47.527Z,239
2019-02-28T04:06:53.567Z,241.9
2019-02-28T04:09:59.573Z,244.8
2019-02-28T04:13:05.739Z,243.4
2019-02-28T04:16:13.033Z,243.4
2019-02-28T04:19:25.584Z,244.8
2019-02-28T04:22:31.708Z,244.8
2019-02-28T04:25:37.768Z,243.4
2019-02-28T04:28:44.003Z,246.2
2019-02-28T04:31:59.386Z,247.7
2019-02-28T04:35:05.377Z,246.2
2019-02-28T04:38:11.327Z,246.2
2019-02-28T04:41:17.414Z,246.2
2019-02-28T04:44:23.358Z,246.2
2019-02-28T04:47:29.318Z,246.2
2019-02-28T04:50:35.280Z,246.2
2019-02-28T04:53:41.235Z,246.2
2019-02-28T04:56:51.535Z,246.2
2019-02-28T04:59:57.596Z,246.2
2019-02-28T05:03:03.472Z,247.7
2019-02-28T05:06:09.491Z,247.7
2019-02-28T05:09:18.365Z,249.1
2019-02-28T05:12:24.472Z,249.1
2019-02-28T05:15:30.436Z,249.1
2019-02-28T05:18:44.778Z,250.6
2019-02-28T05:21:56.870Z,252
2019-02-28T05:25:02.786Z,253.4
2019-02-28T05:28:10.599Z,254.9
2019-02-28T05:31:16.483Z,257.8
2019-02-28T05:34:22.457Z,260.6
2019-02-28T05:37:28.518Z,262.1
2019-02-28T05:40:34.388Z,263.5
2019-02-28T05:43:46.385Z,265
2019-02-28T05:46:52.388Z,269.3
2019-02-28T05:50:03.536Z,269.3
2019-02-28T05:53:12.856Z,246.2
2019-02-28T05:56:18.735Z,270.7
2019-02-28T05:59:29.950Z,275
2019-02-28T06:02:36.014Z,282.2
2019-02-28T06:05:47.765Z,282.2
2019-02-28T06:08:53.642Z,283.7
2019-02-28T06:11:59.686Z,286.6
2019-02-28T06:15:06.858Z,282.2
2019-02-28T06:18:12.845Z,288
2019-02-28T06:21:18.896Z,285.1
2019-02-28T06:24:28.440Z,290.9
2019-02-28T06:27:52.518Z,288
2019-02-28T06:31:00.723Z,288
2019-02-28T06:34:11.786Z,288
2019-02-28T06:37:17.777Z,289.4
2019-02-28T06:40:23.737Z,290.9
2019-02-28T06:43:29.786Z,292.3
2019-02-28T06:46:35.692Z,293.8
2019-02-28T06:49:45.145Z,288
2019-02-28T06:52:51.192Z,282.2
2019-02-28T06:56:02.661Z,289.4
2019-02-28T06:59:08.752Z,286.6
2019-02-28T07:02:14.730Z,283.7
2019-02-28T07:05:27.521Z,280.8
2019-02-28T07:08:33.485Z,279.4
2019-02-28T07:11:39.376Z,283.7
2019-02-28T07:14:52.011Z,283.7
2019-02-28T07:17:57.882Z,280.8
2019-02-28T07:21:03.789Z,282.2
2019-02-28T07:24:12.928Z,280.8
2019-02-28T07:27:18.897Z,277.9
2019-02-28T07:30:33.003Z,270.7
2019-02-28T07:33:45.964Z,273.6
2019-02-28T07:36:51.900Z,273.6
2019-02-28T07:39:58.298Z,270.7
2019-02-28T07:43:04.340Z,267.8
2019-02-28T07:46:15.563Z,272.2
2019-02-28T07:49:21.907Z,263.5
2019-02-28T07:52:36.197Z,276.5
2019-02-28T07:55:42.692Z,273.6
2019-02-28T07:58:48.702Z,270.7
2019-02-28T08:01:55.680Z,253.4
2019-02-28T08:05:07.696Z,272.2
2019-02-28T08:08:13.677Z,267.8
2019-02-28T08:11:23.320Z,266.4
2019-02-28T08:14:29.350Z,265
2019-02-28T08:17:44.711Z,265
2019-02-28T08:20:50.806Z,263.5
2019-02-28T08:23:56.806Z,262.1
2019-02-28T08:27:02.884Z,262.1
2019-02-28T08:30:09.693Z,262.1
2019-02-28T08:33:22.036Z,262.1
2019-02-28T08:36:31.826Z,260.6
2019-02-28T08:39:41.122Z,260.6
2019-02-28T08:42:50.571Z,259.2
2019-02-28T08:45:56.703Z,260.6
2019-02-28T08:49:16.802Z,259.2
2019-02-28T08:52:24.581Z,259.2
2019-02-28T08:55:32.433Z,259.2
2019-02-28T08:58:43.964Z,257.8
2019-02-28T09:01:50.126Z,259.2
2019-02-28T09:04:56.183Z,257.8
2019-02-28T09:08:02.244Z,259.2
2019-02-28T09:11:08.124Z,257.8
2019-02-28T09:14:19.861Z,257.8
2019-02-28T09:17:25.779Z,257.8
2019-02-28T09:20:31.954Z,257.8
2019-02-28T09:23:41.238Z,259.2
2019-02-28T09:26:48.710Z,257.8
2019-02-28T09:29:57.973Z,257.8
2019-02-28T09:33:04.080Z,257.8
2019-02-28T09:36:12.890Z,259.2
2019-02-28T09:39:25.431Z,259.2
2019-02-28T09:42:31.394Z,259.2
2019-02-28T09:45:41.144Z,260.6
2019-02-28T09:48:47.302Z,260.6
2019-02-28T09:51:53.463Z,260.6
2019-02-28T09:55:02.779Z,260.6
2019-02-28T09:58:08.766Z,262.1
2019-02-28T10:01:14.816Z,262.1
2019-02-28T10:04:20.758Z,262.1
2019-02-28T10:07:29.664Z,263.5
2019-02-28T10:10:35.667Z,265
2019-02-28T10:13:41.574Z,263.5
2019-02-28T10:16:53.986Z,262.1
2019-02-28T10:19:59.856Z,265
2019-02-28T10:23:05.909Z,262.1
2019-02-28T10:26:17.195Z,260.6
2019-02-28T10:29:23.195Z,260.6
2019-02-28T10:32:29.160Z,262.1
2019-02-28T10:35:40.021Z,262.1
2019-02-28T10:38:45.896Z,263.5
2019-02-28T10:41:51.919Z,262.1
2019-02-28T10:44:57.924Z,263.5
2019-02-28T10:48:06.908Z,263.5
2019-02-28T10:51:17.013Z,259.2
2019-02-28T10:54:22.974Z,263.5
2019-02-28T10:57:28.885Z,263.5
2019-02-28T11:00:36.435Z,263.5
2019-02-28T11:03:42.698Z,263.5
2019-02-28T11:06:51.209Z,262.1
2019-02-28T11:10:04.133Z,263.5
2019-02-28T11:13:10.132Z,263.5
2019-02-28T11:16:16.060Z,262.1
2019-02-28T11:19:27.441Z,260.6
2019-02-28T11:22:36.430Z,260.6
2019-02-28T11:25:46.222Z,260.6
2019-02-28T11:28:52.502Z,262.1
2019-02-28T11:32:00.348Z,262.1
2019-02-28T11:35:06.358Z,262.1
2019-02-28T11:38:12.320Z,262.1
2019-02-28T11:41:24.351Z,259.2
2019-02-28T11:44:30.596Z,250.6
2019-02-28T11:47:36.702Z,262.1
2019-02-28T11:50:47.477Z,260.6
2019-02-28T11:53:53.594Z,259.2
2019-02-28T11:57:07.854Z,259.2
2019-02-28T12:00:15.345Z,253.4
2019-02-28T12:03:21.752Z,259.2
2019-02-28T12:06:29.275Z,256.3
2019-02-28T12:09:35.268Z,256.3
2019-02-28T12:12:47.321Z,260.6
2019-02-28T12:15:53.426Z,252
2019-02-28T12:18:59.322Z,257.8
2019-02-28T12:22:05.659Z,262.1
2019-02-28T12:25:20.070Z,262.1
2019-02-28T12:28:26.343Z,263.5
2019-02-28T12:31:38.898Z,263.5
2019-02-28T12:34:44.965Z,263.5
2019-02-28T12:37:57.274Z,263.5
2019-02-28T12:41:03.231Z,263.5
2019-02-28T12:44:09.211Z,263.5
2019-02-28T12:47:20.453Z,262.1
2019-02-28T12:50:31.249Z,263.5
2019-02-28T12:53:37.319Z,262.1
2019-02-28T12:56:48.635Z,263.5
2019-02-28T12:59:54.775Z,262.1
2019-02-28T13:03:00.913Z,263.5
2019-02-28T13:06:06.794Z,262.1
2019-02-28T13:09:19.099Z,262.1
2019-02-28T13:12:27.324Z,262.1
2019-02-28T13:15:33.426Z,262.1
2019-02-28T13:18:46.300Z,260.6
2019-02-28T13:21:52.264Z,259.2
2019-02-28T13:24:58.321Z,259.2
2019-02-28T13:28:05.306Z,260.6
2019-02-28T13:31:11.269Z,262.1
2019-02-28T13:34:17.470Z,259.2
2019-02-28T13:37:23.596Z,256.3
2019-02-28T13:40:29.766Z,259.2
2019-02-28T13:43:35.876Z,257.8
2019-02-28T13:46:42.195Z,254.9
2019-02-28T13:49:52.543Z,254.9
2019-02-28T13:53:19.509Z,254.9
2019-02-28T13:56:39.916Z,253.4
2019-02-28T13:59:45.976Z,789.1
2019-02-28T14:02:51.928Z,783.4
2019-02-28T14:05:58.095Z,250.6
2019-02-28T14:09:05.172Z,250.6
2019-02-28T14:12:11.957Z,247.7
2019-02-28T14:15:27.668Z,244.8
2019-02-28T14:18:34.782Z,249.1
2019-02-28T14:21:40.848Z,249.1
2019-02-28T14:24:49.932Z,220.3
2019-02-28T14:28:02.132Z,218.9
2019-02-28T14:31:08.193Z,246.2
2019-02-28T14:34:14.171Z,246.2
2019-02-28T14:37:22.986Z,246.2
2019-02-28T14:40:29.045Z,246.2
2019-02-28T14:43:35.015Z,244.8
2019-02-28T14:46:40.975Z,246.2
2019-02-28T14:49:47.739Z,244.8
2019-02-28T14:52:53.806Z,244.8
2019-02-28T14:55:59.766Z,244.8
2019-02-28T14:59:11.765Z,243.4
2019-02-28T15:02:17.726Z,244.8
2019-02-28T15:05:24.809Z,241.9
2019-02-28T15:08:31.639Z,243.4
2019-02-28T15:11:37.735Z,243.4
2019-02-28T15:14:46.442Z,241.9
2019-02-28T15:17:52.435Z,241.9
2019-02-28T15:20:58.504Z,240.5
2019-02-28T15:24:10.693Z,241.9
2019-02-28T15:27:16.769Z,241.9
2019-02-28T15:30:22.724Z,240.5
2019-02-28T15:33:33.085Z,241.9
2019-02-28T15:36:39.047Z,239
2019-02-28T15:39:51.361Z,239
2019-02-28T15:42:57.418Z,237.6
2019-02-28T15:46:03.693Z,239
2019-02-28T15:49:16.516Z,239
2019-02-28T15:52:22.569Z,237.6
2019-02-28T15:55:28.624Z,237.6
2019-02-28T15:58:37.577Z,237.6
2019-02-28T16:01:47.623Z,237.6
2019-02-28T16:04:53.601Z,237.6
2019-02-28T16:08:13.928Z,237.6
2019-02-28T16:11:19.839Z,237.6
2019-02-28T16:14:25.993Z,236.2
2019-02-28T16:17:37.902Z,234.7
2019-02-28T16:20:43.961Z,234.7
2019-02-28T16:23:49.918Z,236.2
2019-02-28T16:26:59.872Z,234.7
2019-02-28T16:30:05.945Z,234.7
2019-02-28T16:33:11.842Z,233.3
2019-02-28T16:36:18.976Z,234.7
2019-02-28T16:39:33.435Z,234.7
2019-02-28T16:42:39.417Z,237.6
2019-02-28T16:45:51.535Z,236.2
2019-02-28T16:48:57.496Z,237.6
2019-02-28T16:52:08.843Z,237.6
2019-02-28T16:55:14.908Z,237.6
2019-02-28T16:58:25.181Z,237.6
2019-02-28T17:01:31.052Z,237.6
2019-02-28T17:04:36.992Z,237.6
2019-02-28T17:07:47.093Z,239
2019-02-28T17:10:53.003Z,237.6
2019-02-28T17:13:59.064Z,239
2019-02-28T17:17:04.938Z,239
2019-02-28T17:20:16.821Z,239
2019-02-28T17:23:22.802Z,239
2019-02-28T17:26:34.220Z,239
2019-02-28T17:29:40.241Z,239
2019-02-28T17:32:49.249Z,239
2019-02-28T17:35:55.220Z,239
2019-02-28T17:39:01.096Z,240.5
2019-02-28T17:42:17.780Z,240.5
2019-02-28T17:45:23.864Z,240.5
2019-02-28T17:48:29.810Z,239
2019-02-28T17:51:35.773Z,240.5
2019-02-28T17:54:41.841Z,240.5
2019-02-28T17:57:54.260Z,240.5
2019-02-28T18:01:00.212Z,240.5
2019-02-28T18:04:08.153Z,240.5
2019-02-28T18:07:14.279Z,240.5
2019-02-28T18:10:26.397Z,240.5
2019-02-28T18:13:34.341Z,241.9
2019-02-28T18:16:40.433Z,240.5
2019-02-28T18:19:46.309Z,241.9
2019-02-28T18:22:58.002Z,241.9
2019-02-28T18:26:03.949Z,241.9
2019-02-28T18:29:09.919Z,241.9
2019-02-28T18:32:15.992Z,241.9
2019-02-28T18:35:21.945Z,241.9
2019-02-28T18:38:27.917Z,241.9
2019-02-28T18:41:33.986Z,241.9
2019-02-28T18:44:49.125Z,241.9
2019-02-28T18:47:55.103Z,243.4
2019-02-28T18:51:01.062Z,243.4
2019-02-28T18:54:07.215Z,243.4
2019-02-28T18:57:13.240Z,243.4
2019-02-28T19:00:19.258Z,241.9
2019-02-28T19:03:25.314Z,241.9
2019-02-28T19:06:34.348Z,241.9
2019-02-28T19:09:40.245Z,243.4
2019-02-28T19:12:46.743Z,241.9
2019-02-28T19:15:52.637Z,243.4
2019-02-28T19:18:58.593Z,241.9
2019-02-28T19:22:04.669Z,243.4
2019-02-28T19:25:10.626Z,243.4
2019-02-28T19:28:16.684Z,243.4
2019-02-28T19:31:22.591Z,243.4
2019-02-28T19:34:28.612Z,243.4
2019-02-28T19:37:34.548Z,243.4
2019-02-28T19:40:40.628Z,244.8
2019-02-28T19:43:46.689Z,244.8
2019-02-28T19:46:52.622Z,240.5
2019-02-28T19:49:58.612Z,241.9
2019-02-28T19:53:04.750Z,241.9
2019-02-28T19:56:10.859Z,241.9
2019-02-28T19:59:16.782Z,240.5
2019-02-28T20:02:22.766Z,239
2019-02-28T20:05:28.793Z,239
2019-02-28T20:08:34.772Z,240.5
2019-02-28T20:11:40.653Z,239
2019-02-28T20:14:46.789Z,240.5
2019-02-28T20:17:52.657Z,240.5
2019-02-28T20:20:58.727Z,240.5
2019-02-28T20:24:04.686Z,240.5
2019-02-28T20:27:10.739Z,240.5
2019-02-28T20:30:16.614Z,240.5
2019-02-28T20:33:22.641Z,240.5
2019-02-28T20:36:28.702Z,240.5
2019-02-28T20:39:34.689Z,240.5
2019-02-28T20:42:40.748Z,240.5
2019-02-28T20:45:46.939Z,240.5
2019-02-28T20:48:52.922Z,241.9
2019-02-28T20:51:58.833Z,240.5
2019-02-28T20:55:04.903Z,241.9
2019-02-28T20:58:11.049Z,241.9
2019-02-28T21:01:17.208Z,241.9
2019-02-28T21:04:26.010Z,240.5
2019-02-28T21:07:31.910Z,240.5
2019-02-28T21:10:37.783Z,240.5
2019-02-28T21:13:43.829Z,240.5
2019-02-28T21:16:49.801Z,240.5
2019-02-28T21:19:58.572Z,240.5
2019-02-28T21:23:04.679Z,240.5
2019-02-28T21:26:10.647Z,240.5
2019-02-28T21:29:16.609Z,240.5
2019-02-28T21:32:22.618Z,0
2019-02-28T21:35:28.628Z,0
2019-02-28T21:38:34.582Z,0
2019-02-28T21:41:40.758Z,0
2019-02-28T21:44:46.646Z,0
2019-02-28T21:47:52.665Z,0
2019-02-28T21:50:58.887Z,0
2019-02-28T21:54:06.942Z,0
2019-02-28T21:57:13.010Z,0
2019-02-28T22:00:19.019Z,0
2019-02-28T22:03:24.926Z,0
2019-02-28T22:06:30.984Z,0
2019-02-28T22:09:37.048Z,0
2019-02-28T22:12:43.239Z,0
2019-02-28T22:15:49.399Z,0
2019-02-28T22:18:55.347Z,0
2019-02-28T22:22:04.532Z,0
2019-02-28T22:25:10.530Z,0
2019-02-28T22:28:16.707Z,0
2019-02-28T22:31:22.723Z,0
2019-02-28T22:34:28.783Z,0
2019-02-28T22:37:37.770Z,0
2019-02-28T22:40:43.835Z,0
2019-02-28T22:43:49.940Z,0
2019-02-28T22:46:56.053Z,0
2019-02-28T22:50:02.142Z,0
2019-02-28T22:53:08.335Z,0
2019-02-28T22:56:14.346Z,0
2019-02-28T22:59:20.385Z,0
2019-02-28T23:02:29.181Z,0
2019-02-28T23:05:35.313Z,0
2019-02-28T23:08:41.475Z,0
2019-02-28T23:11:47.354Z,0
2019-02-28T23:14:55.733Z,0
2019-02-28T23:18:01.889Z,0
2019-02-28T23:21:07.860Z,0
2019-02-28T23:24:13.818Z,0
2019-02-28T23:27:20.320Z,0
2019-02-28T23:30:26.759Z,0
2019-02-28T23:33:32.808Z,0
2019-02-28T23:36:38.988Z,0
2019-02-28T23:39:45.010Z,0
2019-02-28T23:42:51.117Z,0
2019-02-28T23:45:57.065Z,0
2019-02-28T23:49:03.026Z,0
2019-02-28T23:52:09.003Z,0
2019-02-28T23:55:15.052Z,0
2019-02-28T23:58:21.117Z,0
